This is the latest recevied weather packets stored in our database for station/object KF0TNT. If no packets are shown the sender has not sent any weather packets the latest 10 day(s).
| Time | Temp. | Humidity | Pressure | Rain* | Wind** | Luminosity | Snow |
|---|---|---|---|---|---|---|---|
| 1777503913 | 7.22° C | 73% | 1019.9 hPa | 0 mm | - | 235 W/m² | - |
| 1777503609 | 7.78° C | 72% | 1019.9 hPa | 0 mm | - | 154 W/m² | - |
| 1777503307 | 8.89° C | 70% | 1019.7 hPa | 0 mm | - | 382 W/m² | - |
| 1777503003 | 8.33° C | 69% | 1019.6 hPa | 0 mm | - | 675 W/m² | - |
| 1777502700 | 7.78° C | 72% | 1019.7 hPa | 0 mm | - | 477 W/m² | - |
| 1777502397 | 7.78° C | 73% | 1019.7 hPa | 0 mm | - | 252 W/m² | - |
| 1777502094 | 8.33° C | 72% | 1019.5 hPa | 0 mm | - | 241 W/m² | - |
| 1777501791 | 9.44° C | 57% | 1019.6 hPa | 0 mm | - | 243 W/m² | - |
| 1777501489 | 9.44° C | 57% | 1019.6 hPa | 0 mm | - | 337 W/m² | - |
| 1777501185 | 9.44° C | 59% | 1019.5 hPa | 0 mm | - | 253 W/m² | - |
| 1777500884 | 9.44° C | 58% | 1019.7 hPa | 0 mm | - | 669 W/m² | - |
| 1777500580 | 9.44° C | 62% | 1019.5 hPa | 0 mm | - | 673 W/m² | - |
| 1777500277 | 8.89° C | 60% | 1019.4 hPa | 0 mm | - | 679 W/m² | - |
| 1777499973 | 8.89° C | 59% | 1019.6 hPa | 0 mm | - | 688 W/m² | - |
| 1777499670 | 8.89° C | 61% | 1019.2 hPa | 0 mm | - | 708 W/m² | - |
| 1777499367 | 8.33° C | 66% | 1019.6 hPa | 0 mm | - | 743 W/m² | - |
| 1777499065 | 8.33° C | 65% | 1019.5 hPa | 0 mm | - | 515 W/m² | - |
| 1777498761 | 7.78° C | 71% | 1019.9 hPa | 0 mm | - | 621 W/m² | - |
| 1777498458 | 7.78° C | 71% | 1020.1 hPa | 0 mm | - | 453 W/m² | - |
| 1777498154 | 8.33° C | 70% | 1020.1 hPa | 0 mm | - | 833 W/m² | - |
| 1777497852 | 7.78° C | 71% | 1020.5 hPa | 0 mm | - | 564 W/m² | - |
| 1777497548 | 7.22° C | 74% | 1020.4 hPa | 0 mm | - | 349 W/m² | - |
| 1777497244 | 7.22° C | 74% | 1020 hPa | 0 mm | - | 259 W/m² | - |
| 1777496941 | 6.67° C | 77% | 1020.4 hPa | 0 mm | - | 454 W/m² | - |
| 1777496638 | 6.67° C | 79% | 1020.1 hPa | 0 mm | - | 1082 W/m² | - |
* Rain latest hour (hover to see other rain measurements)
** Current wind speed in m/s (hover to see current wind gust speed)